Terminal Aerodrome Forecast
Issued by NWS

Home | Current Version | Previous Version | Text Only | Print | Product List | Glossary On
Versions: 1 2 3 4 5 6 7 8 9 10 11 12 13 14 15 16 17 18 19 20 21 22 23 24 25 26 27 28 29 30 31 32 33 34
000
FTUS41 KBOX 300828 AAA
TAFACK
TAF AMD
KACK 300828Z 3008/3106 19005KT 1SM BR BKN002
      TEMPO 3009/3013 1/2SM FG OVC001
     FM301400 21010KT 2SM BR BKN008
     FM301600 21012KT P6SM BKN250
     FM302200 21014KT P6SM SCT250
     FM310000 21013KT 1SM BR SCT250=

USA.gov is the U.S. government's official web portal to all federal, state and local government web resources and services.